sensor_id;sensor_type;location;lat;lon;timestamp;P1;durP1;ratioP1;P2;durP2;ratioP2
9807;SDS011;4943;52.550;13.462;2023-02-28T00:02:16;213.30;;;56.07;;
9807;SDS011;4943;52.550;13.462;2023-02-28T00:04:44;212.83;;;56.20;;
9807;SDS011;4943;52.550;13.462;2023-02-28T00:07:19;217.03;;;56.10;;
9807;SDS011;4943;52.550;13.462;2023-02-28T00:09:47;212.40;;;56.93;;
9807;SDS011;4943;52.550;13.462;2023-02-28T00:12:16;215.60;;;56.73;;
9807;SDS011;4943;52.550;13.462;2023-02-28T00:14:44;211.17;;;55.10;;
9807;SDS011;4943;52.550;13.462;2023-02-28T00:17:12;212.23;;;56.20;;
9807;SDS011;4943;52.550;13.462;2023-02-28T00:19:40;212.83;;;57.60;;
9807;SDS011;4943;52.550;13.462;2023-02-28T00:22:08;215.80;;;56.70;;
9807;SDS011;4943;52.550;13.462;2023-02-28T00:24:36;216.80;;;56.90;;
9807;SDS011;4943;52.550;13.462;2023-02-28T00:27:04;213.47;;;56.40;;
9807;SDS011;4943;52.550;13.462;2023-02-28T00:29:34;214.77;;;56.83;;
9807;SDS011;4943;52.550;13.462;2023-02-28T00:32:02;212.67;;;56.07;;
9807;SDS011;4943;52.550;13.462;2023-02-28T00:34:31;214.10;;;56.70;;
9807;SDS011;4943;52.550;13.462;2023-02-28T00:37:04;212.10;;;55.10;;
9807;SDS011;4943;52.550;13.462;2023-02-28T00:39:33;213.00;;;56.50;;
9807;SDS011;4943;52.550;13.462;2023-02-28T00:42:02;212.10;;;55.90;;
9807;SDS011;4943;52.550;13.462;2023-02-28T00:47:00;214.40;;;56.07;;
9807;SDS011;4943;52.550;13.462;2023-02-28T00:49:28;212.63;;;56.47;;
9807;SDS011;4943;52.550;13.462;2023-02-28T00:51:56;214.43;;;54.97;;
9807;SDS011;4943;52.550;13.462;2023-02-28T00:54:24;211.70;;;55.93;;
9807;SDS011;4943;52.550;13.462;2023-02-28T00:56:53;211.40;;;55.63;;
9807;SDS011;4943;52.550;13.462;2023-02-28T00:59:21;217.23;;;57.53;;
9807;SDS011;4943;52.550;13.462;2023-02-28T01:01:48;217.50;;;57.23;;
9807;SDS011;4943;52.550;13.462;2023-02-28T01:04:18;216.93;;;57.57;;
9807;SDS011;4943;52.550;13.462;2023-02-28T01:06:46;216.93;;;57.93;;
9807;SDS011;4943;52.550;13.462;2023-02-28T01:09:14;214.93;;;56.80;;
9807;SDS011;4943;52.550;13.462;2023-02-28T01:11:42;213.07;;;57.70;;
9807;SDS011;4943;52.550;13.462;2023-02-28T01:14:12;213.37;;;56.03;;
9807;SDS011;4943;52.550;13.462;2023-02-28T01:16:41;218.57;;;58.50;;
9807;SDS011;4943;52.550;13.462;2023-02-28T01:19:09;211.13;;;56.00;;
9807;SDS011;4943;52.550;13.462;2023-02-28T01:21:39;213.17;;;57.03;;
9807;SDS011;4943;52.550;13.462;2023-02-28T01:24:07;213.40;;;56.60;;
9807;SDS011;4943;52.550;13.462;2023-02-28T01:26:35;213.50;;;56.73;;
9807;SDS011;4943;52.550;13.462;2023-02-28T01:29:03;212.60;;;56.10;;
9807;SDS011;4943;52.550;13.462;2023-02-28T01:31:31;211.83;;;57.47;;
9807;SDS011;4943;52.550;13.462;2023-02-28T01:33:59;214.83;;;56.83;;
9807;SDS011;4943;52.550;13.462;2023-02-28T01:36:27;211.33;;;56.07;;
9807;SDS011;4943;52.550;13.462;2023-02-28T01:38:57;211.73;;;55.90;;
9807;SDS011;4943;52.550;13.462;2023-02-28T01:41:26;209.13;;;55.37;;
9807;SDS011;4943;52.550;13.462;2023-02-28T01:43:57;212.00;;;56.10;;
9807;SDS011;4943;52.550;13.462;2023-02-28T01:46:29;210.83;;;56.23;;
9807;SDS011;4943;52.550;13.462;2023-02-28T01:49:00;210.63;;;55.67;;
9807;SDS011;4943;52.550;13.462;2023-02-28T01:51:33;210.83;;;57.03;;
9807;SDS011;4943;52.550;13.462;2023-02-28T01:54:07;210.83;;;54.97;;
9807;SDS011;4943;52.550;13.462;2023-02-28T01:56:41;212.50;;;56.77;;
9807;SDS011;4943;52.550;13.462;2023-02-28T01:59:13;209.37;;;55.40;;
9807;SDS011;4943;52.550;13.462;2023-02-28T02:01:47;210.87;;;55.43;;
9807;SDS011;4943;52.550;13.462;2023-02-28T02:04:16;211.77;;;57.93;;
9807;SDS011;4943;52.550;13.462;2023-02-28T02:06:45;209.93;;;56.60;;
9807;SDS011;4943;52.550;13.462;2023-02-28T02:09:16;208.77;;;55.37;;
9807;SDS011;4943;52.550;13.462;2023-02-28T02:11:44;209.30;;;56.67;;
9807;SDS011;4943;52.550;13.462;2023-02-28T02:14:21;205.90;;;54.23;;
9807;SDS011;4943;52.550;13.462;2023-02-28T02:17:07;206.77;;;54.43;;
9807;SDS011;4943;52.550;13.462;2023-02-28T02:19:53;205.13;;;54.30;;
9807;SDS011;4943;52.550;13.462;2023-02-28T02:25:46;209.17;;;56.33;;
9807;SDS011;4943;52.550;13.462;2023-02-28T02:28:28;206.93;;;54.47;;
9807;SDS011;4943;52.550;13.462;2023-02-28T02:31:18;206.17;;;54.27;;
9807;SDS011;4943;52.550;13.462;2023-02-28T02:36:53;205.10;;;54.37;;
9807;SDS011;4943;52.550;13.462;2023-02-28T02:39:34;204.63;;;54.80;;
9807;SDS011;4943;52.550;13.462;2023-02-28T02:42:09;202.57;;;53.43;;
9807;SDS011;4943;52.550;13.462;2023-02-28T02:44:43;202.57;;;54.33;;
9807;SDS011;4943;52.550;13.462;2023-02-28T02:47:15;202.70;;;53.23;;
9807;SDS011;4943;52.550;13.462;2023-02-28T02:49:48;205.67;;;54.80;;
9807;SDS011;4943;52.550;13.462;2023-02-28T02:52:19;204.77;;;53.97;;
9807;SDS011;4943;52.550;13.462;2023-02-28T02:54:50;204.27;;;53.13;;
9807;SDS011;4943;52.550;13.462;2023-02-28T02:57:23;204.37;;;58.70;;
9807;SDS011;4943;52.550;13.462;2023-02-28T02:59:55;200.07;;;52.67;;
9807;SDS011;4943;52.550;13.462;2023-02-28T03:02:24;201.30;;;54.20;;
9807;SDS011;4943;52.550;13.462;2023-02-28T03:04:56;203.43;;;52.97;;
9807;SDS011;4943;52.550;13.462;2023-02-28T03:07:28;199.37;;;52.80;;
9807;SDS011;4943;52.550;13.462;2023-02-28T03:09:57;201.77;;;53.37;;
9807;SDS011;4943;52.550;13.462;2023-02-28T03:12:27;200.90;;;53.53;;
9807;SDS011;4943;52.550;13.462;2023-02-28T03:15:07;201.97;;;53.37;;
9807;SDS011;4943;52.550;13.462;2023-02-28T03:17:47;200.23;;;54.40;;
9807;SDS011;4943;52.550;13.462;2023-02-28T03:20:30;199.83;;;52.93;;
9807;SDS011;4943;52.550;13.462;2023-02-28T03:23:15;199.57;;;52.87;;
9807;SDS011;4943;52.550;13.462;2023-02-28T03:25:53;199.23;;;52.67;;
9807;SDS011;4943;52.550;13.462;2023-02-28T03:28:27;199.87;;;54.03;;
9807;SDS011;4943;52.550;13.462;2023-02-28T03:31:00;199.27;;;53.03;;
9807;SDS011;4943;52.550;13.462;2023-02-28T03:33:36;198.70;;;53.80;;
9807;SDS011;4943;52.550;13.462;2023-02-28T03:36:09;197.40;;;52.43;;
9807;SDS011;4943;52.550;13.462;2023-02-28T03:38:41;198.60;;;53.83;;
9807;SDS011;4943;52.550;13.462;2023-02-28T03:41:13;198.63;;;53.03;;
9807;SDS011;4943;52.550;13.462;2023-02-28T03:43:44;199.23;;;53.97;;
9807;SDS011;4943;52.550;13.462;2023-02-28T03:46:18;196.50;;;52.30;;
9807;SDS011;4943;52.550;13.462;2023-02-28T03:48:51;199.33;;;53.87;;
9807;SDS011;4943;52.550;13.462;2023-02-28T03:51:24;196.93;;;52.97;;
9807;SDS011;4943;52.550;13.462;2023-02-28T03:53:56;195.97;;;52.53;;
9807;SDS011;4943;52.550;13.462;2023-02-28T03:56:30;196.30;;;52.03;;
9807;SDS011;4943;52.550;13.462;2023-02-28T03:59:02;195.27;;;52.20;;
9807;SDS011;4943;52.550;13.462;2023-02-28T04:01:35;196.93;;;53.53;;
9807;SDS011;4943;52.550;13.462;2023-02-28T04:04:07;195.73;;;52.97;;
9807;SDS011;4943;52.550;13.462;2023-02-28T04:06:37;195.63;;;52.90;;
9807;SDS011;4943;52.550;13.462;2023-02-28T04:09:06;195.07;;;52.87;;
9807;SDS011;4943;52.550;13.462;2023-02-28T04:11:36;195.77;;;52.63;;
9807;SDS011;4943;52.550;13.462;2023-02-28T04:14:05;196.57;;;52.80;;
9807;SDS011;4943;52.550;13.462;2023-02-28T04:16:35;195.27;;;52.70;;
9807;SDS011;4943;52.550;13.462;2023-02-28T04:19:05;194.67;;;52.00;;
9807;SDS011;4943;52.550;13.462;2023-02-28T04:21:35;194.40;;;52.83;;
9807;SDS011;4943;52.550;13.462;2023-02-28T04:24:07;194.70;;;52.83;;
9807;SDS011;4943;52.550;13.462;2023-02-28T04:26:41;193.80;;;52.40;;
9807;SDS011;4943;52.550;13.462;2023-02-28T04:29:11;194.50;;;52.83;;
9807;SDS011;4943;52.550;13.462;2023-02-28T04:31:40;193.47;;;53.03;;
9807;SDS011;4943;52.550;13.462;2023-02-28T04:34:08;192.47;;;51.70;;
9807;SDS011;4943;52.550;13.462;2023-02-28T04:36:37;195.23;;;53.43;;
9807;SDS011;4943;52.550;13.462;2023-02-28T04:39:05;199.17;;;52.30;;
9807;SDS011;4943;52.550;13.462;2023-02-28T04:41:33;201.57;;;53.03;;
9807;SDS011;4943;52.550;13.462;2023-02-28T04:44:02;201.27;;;52.37;;
9807;SDS011;4943;52.550;13.462;2023-02-28T04:46:30;194.27;;;52.07;;
9807;SDS011;4943;52.550;13.462;2023-02-28T04:48:58;192.07;;;51.50;;
9807;SDS011;4943;52.550;13.462;2023-02-28T04:51:26;193.97;;;52.37;;
9807;SDS011;4943;52.550;13.462;2023-02-28T04:53:56;191.90;;;51.63;;
9807;SDS011;4943;52.550;13.462;2023-02-28T04:56:24;193.40;;;52.30;;
9807;SDS011;4943;52.550;13.462;2023-02-28T04:58:51;193.67;;;52.97;;
9807;SDS011;4943;52.550;13.462;2023-02-28T05:01:22;193.00;;;53.07;;
9807;SDS011;4943;52.550;13.462;2023-02-28T05:03:52;192.40;;;52.73;;
9807;SDS011;4943;52.550;13.462;2023-02-28T05:06:22;192.33;;;51.30;;
9807;SDS011;4943;52.550;13.462;2023-02-28T05:08:51;193.60;;;52.47;;
9807;SDS011;4943;52.550;13.462;2023-02-28T05:11:21;191.70;;;51.93;;
9807;SDS011;4943;52.550;13.462;2023-02-28T05:13:51;190.67;;;51.83;;
9807;SDS011;4943;52.550;13.462;2023-02-28T05:16:21;194.63;;;52.43;;
9807;SDS011;4943;52.550;13.462;2023-02-28T05:18:49;193.60;;;53.07;;
9807;SDS011;4943;52.550;13.462;2023-02-28T05:21:22;190.53;;;51.47;;
9807;SDS011;4943;52.550;13.462;2023-02-28T05:23:53;194.53;;;53.00;;
9807;SDS011;4943;52.550;13.462;2023-02-28T05:26:24;192.47;;;52.10;;
9807;SDS011;4943;52.550;13.462;2023-02-28T05:28:52;192.03;;;52.43;;
9807;SDS011;4943;52.550;13.462;2023-02-28T05:31:21;193.83;;;52.37;;
9807;SDS011;4943;52.550;13.462;2023-02-28T05:33:50;193.43;;;53.40;;
9807;SDS011;4943;52.550;13.462;2023-02-28T05:36:18;193.17;;;52.20;;
9807;SDS011;4943;52.550;13.462;2023-02-28T05:38:47;191.03;;;53.67;;
9807;SDS011;4943;52.550;13.462;2023-02-28T05:41:16;190.10;;;51.33;;
9807;SDS011;4943;52.550;13.462;2023-02-28T05:43:47;194.90;;;52.80;;
9807;SDS011;4943;52.550;13.462;2023-02-28T05:46:15;193.03;;;51.90;;
9807;SDS011;4943;52.550;13.462;2023-02-28T05:48:46;193.33;;;54.17;;
9807;SDS011;4943;52.550;13.462;2023-02-28T05:51:15;190.47;;;51.90;;
9807;SDS011;4943;52.550;13.462;2023-02-28T05:53:43;190.83;;;52.83;;
9807;SDS011;4943;52.550;13.462;2023-02-28T05:56:12;189.30;;;51.90;;
9807;SDS011;4943;52.550;13.462;2023-02-28T05:58:39;190.40;;;52.20;;
9807;SDS011;4943;52.550;13.462;2023-02-28T06:01:26;191.87;;;52.23;;
9807;SDS011;4943;52.550;13.462;2023-02-28T06:04:00;189.77;;;52.17;;
9807;SDS011;4943;52.550;13.462;2023-02-28T06:06:28;190.63;;;51.97;;
9807;SDS011;4943;52.550;13.462;2023-02-28T06:08:56;193.27;;;53.57;;
9807;SDS011;4943;52.550;13.462;2023-02-28T06:11:25;191.70;;;53.03;;
9807;SDS011;4943;52.550;13.462;2023-02-28T06:13:55;191.40;;;52.80;;
9807;SDS011;4943;52.550;13.462;2023-02-28T06:16:27;189.37;;;52.07;;
9807;SDS011;4943;52.550;13.462;2023-02-28T06:18:57;189.83;;;51.93;;
9807;SDS011;4943;52.550;13.462;2023-02-28T06:21:26;189.60;;;52.13;;
9807;SDS011;4943;52.550;13.462;2023-02-28T06:23:55;190.73;;;53.23;;
9807;SDS011;4943;52.550;13.462;2023-02-28T06:26:24;191.30;;;52.90;;
9807;SDS011;4943;52.550;13.462;2023-02-28T06:28:52;193.63;;;54.13;;
9807;SDS011;4943;52.550;13.462;2023-02-28T06:31:21;191.00;;;52.57;;
9807;SDS011;4943;52.550;13.462;2023-02-28T06:33:52;191.30;;;52.83;;
9807;SDS011;4943;52.550;13.462;2023-02-28T06:36:20;189.43;;;52.37;;
9807;SDS011;4943;52.550;13.462;2023-02-28T06:38:48;189.83;;;53.20;;
9807;SDS011;4943;52.550;13.462;2023-02-28T06:41:21;190.43;;;51.90;;
9807;SDS011;4943;52.550;13.462;2023-02-28T06:43:50;190.40;;;52.40;;
9807;SDS011;4943;52.550;13.462;2023-02-28T06:46:18;191.77;;;52.47;;
9807;SDS011;4943;52.550;13.462;2023-02-28T06:48:47;195.77;;;53.93;;
9807;SDS011;4943;52.550;13.462;2023-02-28T06:51:17;191.27;;;52.13;;
9807;SDS011;4943;52.550;13.462;2023-02-28T06:53:48;190.43;;;52.10;;
9807;SDS011;4943;52.550;13.462;2023-02-28T06:56:18;190.20;;;51.60;;
9807;SDS011;4943;52.550;13.462;2023-02-28T06:58:47;196.97;;;56.77;;
9807;SDS011;4943;52.550;13.462;2023-02-28T07:01:16;190.40;;;52.13;;
9807;SDS011;4943;52.550;13.462;2023-02-28T07:03:45;198.03;;;53.57;;
9807;SDS011;4943;52.550;13.462;2023-02-28T07:06:19;192.70;;;52.90;;
9807;SDS011;4943;52.550;13.462;2023-02-28T07:08:49;192.87;;;54.30;;
9807;SDS011;4943;52.550;13.462;2023-02-28T07:11:19;194.60;;;52.03;;
9807;SDS011;4943;52.550;13.462;2023-02-28T07:13:48;193.47;;;54.97;;
9807;SDS011;4943;52.550;13.462;2023-02-28T07:16:17;193.27;;;53.60;;
9807;SDS011;4943;52.550;13.462;2023-02-28T07:18:45;195.07;;;53.37;;
9807;SDS011;4943;52.550;13.462;2023-02-28T07:21:13;198.83;;;54.40;;
9807;SDS011;4943;52.550;13.462;2023-02-28T07:23:43;195.10;;;53.23;;
9807;SDS011;4943;52.550;13.462;2023-02-28T07:26:12;196.97;;;54.40;;
9807;SDS011;4943;52.550;13.462;2023-02-28T07:28:42;196.40;;;52.43;;
9807;SDS011;4943;52.550;13.462;2023-02-28T07:31:10;207.30;;;71.10;;
9807;SDS011;4943;52.550;13.462;2023-02-28T07:33:40;195.70;;;52.87;;
9807;SDS011;4943;52.550;13.462;2023-02-28T07:36:09;201.50;;;56.37;;
9807;SDS011;4943;52.550;13.462;2023-02-28T07:38:41;197.50;;;54.23;;
9807;SDS011;4943;52.550;13.462;2023-02-28T07:41:14;198.93;;;53.90;;
9807;SDS011;4943;52.550;13.462;2023-02-28T07:43:43;200.17;;;54.53;;
9807;SDS011;4943;52.550;13.462;2023-02-28T07:46:12;199.33;;;54.80;;
9807;SDS011;4943;52.550;13.462;2023-02-28T07:48:42;200.13;;;53.60;;
9807;SDS011;4943;52.550;13.462;2023-02-28T07:51:11;201.53;;;54.97;;
9807;SDS011;4943;52.550;13.462;2023-02-28T07:53:39;199.97;;;53.77;;
9807;SDS011;4943;52.550;13.462;2023-02-28T07:56:07;202.13;;;54.60;;
9807;SDS011;4943;52.550;13.462;2023-02-28T07:58:38;201.80;;;54.23;;
9807;SDS011;4943;52.550;13.462;2023-02-28T08:01:06;206.60;;;55.10;;
9807;SDS011;4943;52.550;13.462;2023-02-28T08:03:35;203.97;;;54.80;;
9807;SDS011;4943;52.550;13.462;2023-02-28T08:06:04;206.53;;;55.90;;
9807;SDS011;4943;52.550;13.462;2023-02-28T08:08:34;203.47;;;54.83;;
9807;SDS011;4943;52.550;13.462;2023-02-28T08:11:02;205.87;;;56.03;;
9807;SDS011;4943;52.550;13.462;2023-02-28T08:13:31;208.17;;;55.87;;
9807;SDS011;4943;52.550;13.462;2023-02-28T08:16:00;210.23;;;56.67;;
9807;SDS011;4943;52.550;13.462;2023-02-28T08:18:29;207.33;;;56.40;;
9807;SDS011;4943;52.550;13.462;2023-02-28T08:20:59;208.33;;;55.30;;
9807;SDS011;4943;52.550;13.462;2023-02-28T08:23:33;210.23;;;56.97;;
9807;SDS011;4943;52.550;13.462;2023-02-28T08:26:01;209.17;;;55.83;;
9807;SDS011;4943;52.550;13.462;2023-02-28T08:28:30;210.80;;;64.13;;
9807;SDS011;4943;52.550;13.462;2023-02-28T08:31:00;211.67;;;57.23;;
9807;SDS011;4943;52.550;13.462;2023-02-28T08:33:33;210.03;;;55.87;;
9807;SDS011;4943;52.550;13.462;2023-02-28T08:36:02;208.37;;;55.60;;
9807;SDS011;4943;52.550;13.462;2023-02-28T08:38:31;210.00;;;55.77;;
9807;SDS011;4943;52.550;13.462;2023-02-28T08:40:59;208.93;;;56.10;;
9807;SDS011;4943;52.550;13.462;2023-02-28T08:43:28;208.33;;;55.17;;
9807;SDS011;4943;52.550;13.462;2023-02-28T08:45:56;212.30;;;60.50;;
9807;SDS011;4943;52.550;13.462;2023-02-28T08:48:27;209.33;;;55.27;;
9807;SDS011;4943;52.550;13.462;2023-02-28T08:50:57;211.20;;;57.97;;
9807;SDS011;4943;52.550;13.462;2023-02-28T08:53:34;212.57;;;57.57;;
9807;SDS011;4943;52.550;13.462;2023-02-28T08:56:03;210.73;;;57.20;;
9807;SDS011;4943;52.550;13.462;2023-02-28T08:58:33;210.53;;;56.40;;
9807;SDS011;4943;52.550;13.462;2023-02-28T09:01:07;210.87;;;56.30;;
9807;SDS011;4943;52.550;13.462;2023-02-28T09:03:37;215.87;;;55.33;;
9807;SDS011;4943;52.550;13.462;2023-02-28T09:06:07;211.40;;;56.27;;
9807;SDS011;4943;52.550;13.462;2023-02-28T09:08:37;219.93;;;62.97;;
9807;SDS011;4943;52.550;13.462;2023-02-28T09:11:06;214.50;;;57.43;;
9807;SDS011;4943;52.550;13.462;2023-02-28T09:13:35;214.37;;;57.53;;
9807;SDS011;4943;52.550;13.462;2023-02-28T09:16:03;215.83;;;64.90;;
9807;SDS011;4943;52.550;13.462;2023-02-28T09:18:33;213.23;;;57.50;;
9807;SDS011;4943;52.550;13.462;2023-02-28T09:21:05;213.90;;;57.03;;
9807;SDS011;4943;52.550;13.462;2023-02-28T09:23:34;213.00;;;55.77;;
9807;SDS011;4943;52.550;13.462;2023-02-28T09:26:04;215.47;;;60.47;;
9807;SDS011;4943;52.550;13.462;2023-02-28T09:28:33;217.47;;;62.83;;
9807;SDS011;4943;52.550;13.462;2023-02-28T09:31:01;213.87;;;56.93;;
9807;SDS011;4943;52.550;13.462;2023-02-28T09:33:31;212.63;;;55.67;;
9807;SDS011;4943;52.550;13.462;2023-02-28T09:36:00;215.17;;;56.90;;
9807;SDS011;4943;52.550;13.462;2023-02-28T09:38:31;216.30;;;57.03;;
9807;SDS011;4943;52.550;13.462;2023-02-28T09:41:00;214.33;;;57.87;;
9807;SDS011;4943;52.550;13.462;2023-02-28T09:43:32;214.23;;;56.10;;
9807;SDS011;4943;52.550;13.462;2023-02-28T09:46:05;213.57;;;58.33;;
9807;SDS011;4943;52.550;13.462;2023-02-28T09:48:41;215.13;;;56.63;;
9807;SDS011;4943;52.550;13.462;2023-02-28T09:51:26;214.47;;;57.93;;
9807;SDS011;4943;52.550;13.462;2023-02-28T09:54:02;220.07;;;64.33;;
9807;SDS011;4943;52.550;13.462;2023-02-28T09:56:31;215.67;;;56.13;;
9807;SDS011;4943;52.550;13.462;2023-02-28T09:59:06;216.37;;;58.30;;
9807;SDS011;4943;52.550;13.462;2023-02-28T10:01:42;214.27;;;56.83;;
9807;SDS011;4943;52.550;13.462;2023-02-28T10:04:21;224.53;;;82.53;;
9807;SDS011;4943;52.550;13.462;2023-02-28T10:07:03;222.80;;;80.30;;
9807;SDS011;4943;52.550;13.462;2023-02-28T10:09:45;213.93;;;57.13;;
9807;SDS011;4943;52.550;13.462;2023-02-28T10:12:19;217.93;;;63.10;;
9807;SDS011;4943;52.550;13.462;2023-02-28T10:14:49;230.47;;;99.63;;
9807;SDS011;4943;52.550;13.462;2023-02-28T10:17:21;216.53;;;57.77;;
9807;SDS011;4943;52.550;13.462;2023-02-28T10:19:55;215.10;;;56.80;;
9807;SDS011;4943;52.550;13.462;2023-02-28T10:22:34;219.57;;;66.50;;
9807;SDS011;4943;52.550;13.462;2023-02-28T10:25:15;217.67;;;60.47;;
9807;SDS011;4943;52.550;13.462;2023-02-28T10:27:45;214.80;;;56.13;;
9807;SDS011;4943;52.550;13.462;2023-02-28T10:30:13;216.27;;;58.90;;
9807;SDS011;4943;52.550;13.462;2023-02-28T10:32:43;220.67;;;57.70;;
9807;SDS011;4943;52.550;13.462;2023-02-28T10:35:17;218.43;;;58.43;;
9807;SDS011;4943;52.550;13.462;2023-02-28T10:37:47;227.00;;;69.03;;
9807;SDS011;4943;52.550;13.462;2023-02-28T10:40:27;218.13;;;58.27;;
9807;SDS011;4943;52.550;13.462;2023-02-28T10:42:59;217.50;;;59.73;;
9807;SDS011;4943;52.550;13.462;2023-02-28T10:45:29;215.53;;;56.97;;
9807;SDS011;4943;52.550;13.462;2023-02-28T10:48:01;218.30;;;59.33;;
9807;SDS011;4943;52.550;13.462;2023-02-28T10:50:32;218.07;;;64.40;;
9807;SDS011;4943;52.550;13.462;2023-02-28T10:53:15;216.23;;;61.60;;
9807;SDS011;4943;52.550;13.462;2023-02-28T10:56:00;217.17;;;58.27;;
9807;SDS011;4943;52.550;13.462;2023-02-28T10:58:30;220.57;;;65.70;;
9807;SDS011;4943;52.550;13.462;2023-02-28T11:01:12;215.67;;;57.60;;
9807;SDS011;4943;52.550;13.462;2023-02-28T11:03:42;215.97;;;58.20;;
9807;SDS011;4943;52.550;13.462;2023-02-28T11:06:13;219.63;;;68.83;;
9807;SDS011;4943;52.550;13.462;2023-02-28T11:08:49;216.73;;;59.03;;
9807;SDS011;4943;52.550;13.462;2023-02-28T11:11:20;225.27;;;57.33;;
9807;SDS011;4943;52.550;13.462;2023-02-28T11:13:51;217.73;;;60.03;;
9807;SDS011;4943;52.550;13.462;2023-02-28T11:16:21;217.70;;;57.47;;
9807;SDS011;4943;52.550;13.462;2023-02-28T11:18:58;219.00;;;59.77;;
9807;SDS011;4943;52.550;13.462;2023-02-28T11:21:27;238.00;;;69.57;;
9807;SDS011;4943;52.550;13.462;2023-02-28T11:24:00;220.00;;;61.93;;
9807;SDS011;4943;52.550;13.462;2023-02-28T11:26:40;216.30;;;58.20;;
9807;SDS011;4943;52.550;13.462;2023-02-28T11:29:11;219.00;;;59.87;;
9807;SDS011;4943;52.550;13.462;2023-02-28T11:32:00;223.53;;;77.33;;
9807;SDS011;4943;52.550;13.462;2023-02-28T11:34:47;216.77;;;58.87;;
9807;SDS011;4943;52.550;13.462;2023-02-28T11:37:29;218.07;;;63.47;;
9807;SDS011;4943;52.550;13.462;2023-02-28T11:39:58;216.37;;;59.33;;
9807;SDS011;4943;52.550;13.462;2023-02-28T11:42:32;217.43;;;58.97;;
9807;SDS011;4943;52.550;13.462;2023-02-28T11:45:26;216.57;;;59.47;;
9807;SDS011;4943;52.550;13.462;2023-02-28T11:48:04;241.48;;;79.85;;
9807;SDS011;4943;52.550;13.462;2023-02-28T11:53:40;228.90;;;68.37;;
9807;SDS011;4943;52.550;13.462;2023-02-28T11:56:19;233.40;;;82.20;;
9807;SDS011;4943;52.550;13.462;2023-02-28T11:58:58;229.70;;;70.00;;
9807;SDS011;4943;52.550;13.462;2023-02-28T12:01:38;226.07;;;60.47;;
9807;SDS011;4943;52.550;13.462;2023-02-28T12:04:24;227.67;;;62.03;;
9807;SDS011;4943;52.550;13.462;2023-02-28T12:06:57;223.57;;;59.73;;
9807;SDS011;4943;52.550;13.462;2023-02-28T12:09:34;231.47;;;68.33;;
9807;SDS011;4943;52.550;13.462;2023-02-28T12:12:26;225.97;;;61.53;;
9807;SDS011;4943;52.550;13.462;2023-02-28T12:17:58;223.87;;;59.40;;
9807;SDS011;4943;52.550;13.462;2023-02-28T12:20:44;226.00;;;60.90;;
9807;SDS011;4943;52.550;13.462;2023-02-28T12:23:22;223.90;;;60.77;;
9807;SDS011;4943;52.550;13.462;2023-02-28T12:26:07;225.70;;;62.10;;
9807;SDS011;4943;52.550;13.462;2023-02-28T12:28:44;227.50;;;65.13;;
9807;SDS011;4943;52.550;13.462;2023-02-28T12:31:19;228.63;;;63.63;;
9807;SDS011;4943;52.550;13.462;2023-02-28T12:33:51;226.27;;;60.87;;
9807;SDS011;4943;52.550;13.462;2023-02-28T12:36:22;224.80;;;60.43;;
9807;SDS011;4943;52.550;13.462;2023-02-28T12:38:53;224.57;;;59.73;;
9807;SDS011;4943;52.550;13.462;2023-02-28T12:41:26;226.43;;;61.00;;
9807;SDS011;4943;52.550;13.462;2023-02-28T12:44:01;225.03;;;60.40;;
9807;SDS011;4943;52.550;13.462;2023-02-28T12:46:35;227.17;;;61.17;;
9807;SDS011;4943;52.550;13.462;2023-02-28T12:49:09;227.93;;;64.37;;
9807;SDS011;4943;52.550;13.462;2023-02-28T12:51:41;226.80;;;61.70;;
9807;SDS011;4943;52.550;13.462;2023-02-28T12:54:12;229.17;;;63.47;;
9807;SDS011;4943;52.550;13.462;2023-02-28T12:56:47;227.60;;;62.57;;
9807;SDS011;4943;52.550;13.462;2023-02-28T12:59:23;226.73;;;62.17;;
9807;SDS011;4943;52.550;13.462;2023-02-28T13:02:00;225.57;;;60.93;;
9807;SDS011;4943;52.550;13.462;2023-02-28T13:04:46;225.77;;;61.03;;
9807;SDS011;4943;52.550;13.462;2023-02-28T13:10:44;227.53;;;61.80;;
9807;SDS011;4943;52.550;13.462;2023-02-28T13:13:16;228.63;;;60.03;;
9807;SDS011;4943;52.550;13.462;2023-02-28T13:16:03;225.90;;;62.17;;
9807;SDS011;4943;52.550;13.462;2023-02-28T13:18:35;226.00;;;62.93;;
9807;SDS011;4943;52.550;13.462;2023-02-28T13:21:06;227.30;;;62.60;;
9807;SDS011;4943;52.550;13.462;2023-02-28T13:23:37;228.73;;;63.57;;
9807;SDS011;4943;52.550;13.462;2023-02-28T13:29:27;225.43;;;60.00;;
9807;SDS011;4943;52.550;13.462;2023-02-28T13:35:13;232.60;;;72.40;;
9807;SDS011;4943;52.550;13.462;2023-02-28T13:37:43;226.70;;;62.20;;
9807;SDS011;4943;52.550;13.462;2023-02-28T13:40:26;227.17;;;63.97;;
9807;SDS011;4943;52.550;13.462;2023-02-28T13:43:03;230.07;;;68.27;;
9807;SDS011;4943;52.550;13.462;2023-02-28T13:45:35;226.93;;;62.13;;
9807;SDS011;4943;52.550;13.462;2023-02-28T13:48:05;227.70;;;62.60;;
9807;SDS011;4943;52.550;13.462;2023-02-28T13:50:46;225.13;;;61.23;;
9807;SDS011;4943;52.550;13.462;2023-02-28T13:53:27;231.67;;;65.50;;
9807;SDS011;4943;52.550;13.462;2023-02-28T13:56:19;227.90;;;64.07;;
9807;SDS011;4943;52.550;13.462;2023-02-28T13:59:00;226.07;;;61.63;;
9807;SDS011;4943;52.550;13.462;2023-02-28T14:01:40;226.13;;;62.03;;
9807;SDS011;4943;52.550;13.462;2023-02-28T14:07:30;225.83;;;61.47;;
9807;SDS011;4943;52.550;13.462;2023-02-28T14:10:02;228.87;;;60.83;;
9807;SDS011;4943;52.550;13.462;2023-02-28T14:12:53;226.43;;;61.37;;
9807;SDS011;4943;52.550;13.462;2023-02-28T14:18:16;227.40;;;63.13;;
9807;SDS011;4943;52.550;13.462;2023-02-28T14:20:52;226.73;;;61.83;;
9807;SDS011;4943;52.550;13.462;2023-02-28T14:23:54;225.23;;;60.27;;
9807;SDS011;4943;52.550;13.462;2023-02-28T14:29:51;231.03;;;63.27;;
9807;SDS011;4943;52.550;13.462;2023-02-28T14:32:49;225.97;;;62.03;;
9807;SDS011;4943;52.550;13.462;2023-02-28T14:35:34;227.40;;;63.33;;
9807;SDS011;4943;52.550;13.462;2023-02-28T14:38:13;226.77;;;61.97;;
9807;SDS011;4943;52.550;13.462;2023-02-28T14:40:49;227.37;;;62.50;;
9807;SDS011;4943;52.550;13.462;2023-02-28T14:43:20;226.60;;;62.87;;
9807;SDS011;4943;52.550;13.462;2023-02-28T14:45:50;233.40;;;73.77;;
9807;SDS011;4943;52.550;13.462;2023-02-28T14:48:20;231.67;;;66.77;;
9807;SDS011;4943;52.550;13.462;2023-02-28T14:50:52;232.50;;;64.67;;
9807;SDS011;4943;52.550;13.462;2023-02-28T14:53:23;228.93;;;64.13;;
9807;SDS011;4943;52.550;13.462;2023-02-28T14:55:55;228.77;;;64.70;;
9807;SDS011;4943;52.550;13.462;2023-02-28T14:58:25;231.07;;;68.83;;
9807;SDS011;4943;52.550;13.462;2023-02-28T15:00:54;227.23;;;61.17;;
9807;SDS011;4943;52.550;13.462;2023-02-28T15:03:27;228.80;;;64.93;;
9807;SDS011;4943;52.550;13.462;2023-02-28T15:05:59;228.87;;;63.27;;
9807;SDS011;4943;52.550;13.462;2023-02-28T15:08:29;229.83;;;64.17;;
9807;SDS011;4943;52.550;13.462;2023-02-28T15:11:03;228.47;;;62.87;;
9807;SDS011;4943;52.550;13.462;2023-02-28T15:13:35;235.10;;;70.93;;
9807;SDS011;4943;52.550;13.462;2023-02-28T15:16:06;241.47;;;70.97;;
9807;SDS011;4943;52.550;13.462;2023-02-28T15:18:42;228.20;;;62.53;;
9807;SDS011;4943;52.550;13.462;2023-02-28T15:21:15;232.90;;;71.27;;
9807;SDS011;4943;52.550;13.462;2023-02-28T15:23:46;230.43;;;63.40;;
9807;SDS011;4943;52.550;13.462;2023-02-28T15:26:19;232.37;;;63.67;;